sensor_id;sensor_type;location;lat;lon;timestamp;pressure;altitude;pressure_sealevel;temperature;humidity
48095;BME280;33874;52.070;-0.516;2023-03-05T00:01:17;102244.38;;;3.82;64.93
48095;BME280;33874;52.070;-0.516;2023-03-05T00:03:46;102244.60;;;3.80;65.03
48095;BME280;33874;52.070;-0.516;2023-03-05T00:06:15;102245.98;;;3.80;64.94
48095;BME280;33874;52.070;-0.516;2023-03-05T00:08:44;102245.37;;;3.79;64.84
48095;BME280;33874;52.070;-0.516;2023-03-05T00:11:12;102243.33;;;3.77;64.84
48095;BME280;33874;52.070;-0.516;2023-03-05T00:13:41;102241.64;;;3.75;65.01
48095;BME280;33874;52.070;-0.516;2023-03-05T00:16:09;102243.77;;;3.74;65.03
48095;BME280;33874;52.070;-0.516;2023-03-05T00:18:38;102247.48;;;3.72;65.00
48095;BME280;33874;52.070;-0.516;2023-03-05T00:21:26;102246.48;;;3.71;65.01
48095;BME280;33874;52.070;-0.516;2023-03-05T00:23:55;102247.67;;;3.71;65.16
48095;BME280;33874;52.070;-0.516;2023-03-05T00:26:24;102248.70;;;3.72;65.19
48095;BME280;33874;52.070;-0.516;2023-03-05T00:28:53;102241.88;;;3.73;65.21
48095;BME280;33874;52.070;-0.516;2023-03-05T00:31:22;102242.38;;;3.74;65.14
48095;BME280;33874;52.070;-0.516;2023-03-05T00:33:52;102242.89;;;3.74;65.09
48095;BME280;33874;52.070;-0.516;2023-03-05T00:36:20;102240.77;;;3.76;65.17
48095;BME280;33874;52.070;-0.516;2023-03-05T00:38:48;102239.58;;;3.75;64.97
48095;BME280;33874;52.070;-0.516;2023-03-05T00:41:16;102242.27;;;3.72;65.07
48095;BME280;33874;52.070;-0.516;2023-03-05T00:43:44;102240.33;;;3.73;65.15
48095;BME280;33874;52.070;-0.516;2023-03-05T00:46:13;102239.46;;;3.73;65.14
48095;BME280;33874;52.070;-0.516;2023-03-05T00:48:42;102229.88;;;3.74;65.28
48095;BME280;33874;52.070;-0.516;2023-03-05T00:51:10;102229.92;;;3.72;65.12
48095;BME280;33874;52.070;-0.516;2023-03-05T00:53:38;102221.76;;;3.72;65.21
48095;BME280;33874;52.070;-0.516;2023-03-05T00:56:06;102218.27;;;3.72;65.26
48095;BME280;33874;52.070;-0.516;2023-03-05T00:58:34;102209.44;;;3.71;65.10
48095;BME280;33874;52.070;-0.516;2023-03-05T01:01:02;102206.91;;;3.69;64.96
48095;BME280;33874;52.070;-0.516;2023-03-05T01:03:30;102205.02;;;3.68;65.13
48095;BME280;33874;52.070;-0.516;2023-03-05T01:05:59;102200.21;;;3.66;64.88
48095;BME280;33874;52.070;-0.516;2023-03-05T01:08:28;102192.84;;;3.63;64.92
48095;BME280;33874;52.070;-0.516;2023-03-05T01:10:56;102193.11;;;3.60;64.91
48095;BME280;33874;52.070;-0.516;2023-03-05T01:13:24;102191.29;;;3.57;64.75
48095;BME280;33874;52.070;-0.516;2023-03-05T01:15:52;102185.46;;;3.55;64.97
48095;BME280;33874;52.070;-0.516;2023-03-05T01:18:19;102181.98;;;3.55;64.93
48095;BME280;33874;52.070;-0.516;2023-03-05T01:20:48;102181.71;;;3.52;64.92
48095;BME280;33874;52.070;-0.516;2023-03-05T01:23:16;102176.60;;;3.50;64.79
48095;BME280;33874;52.070;-0.516;2023-03-05T01:25:44;102175.48;;;3.46;64.82
48095;BME280;33874;52.070;-0.516;2023-03-05T01:28:13;102171.31;;;3.47;64.99
48095;BME280;33874;52.070;-0.516;2023-03-05T01:30:40;102171.66;;;3.46;64.97
48095;BME280;33874;52.070;-0.516;2023-03-05T01:33:08;102167.46;;;3.47;65.07
48095;BME280;33874;52.070;-0.516;2023-03-05T01:35:36;102163.31;;;3.46;65.09
48095;BME280;33874;52.070;-0.516;2023-03-05T01:38:04;102158.45;;;3.46;65.08
48095;BME280;33874;52.070;-0.516;2023-03-05T01:40:32;102153.63;;;3.45;65.18
48095;BME280;33874;52.070;-0.516;2023-03-05T01:43:23;102154.57;;;3.43;65.06
48095;BME280;33874;52.070;-0.516;2023-03-05T01:48:36;102150.07;;;3.42;65.15
48095;BME280;33874;52.070;-0.516;2023-03-05T01:51:04;102150.28;;;3.41;65.04
48095;BME280;33874;52.070;-0.516;2023-03-05T01:53:32;102147.77;;;3.37;64.99
48095;BME280;33874;52.070;-0.516;2023-03-05T01:56:00;102142.66;;;3.34;64.98
48095;BME280;33874;52.070;-0.516;2023-03-05T01:58:28;102133.11;;;3.34;65.00
48095;BME280;33874;52.070;-0.516;2023-03-05T02:00:56;102131.89;;;3.34;65.12
48095;BME280;33874;52.070;-0.516;2023-03-05T02:03:24;102126.30;;;3.35;65.14
48095;BME280;33874;52.070;-0.516;2023-03-05T02:05:52;102123.84;;;3.36;65.22
48095;BME280;33874;52.070;-0.516;2023-03-05T02:08:20;102124.83;;;3.37;65.17
48095;BME280;33874;52.070;-0.516;2023-03-05T02:10:51;102126.86;;;3.40;65.36
48095;BME280;33874;52.070;-0.516;2023-03-05T02:13:21;102124.35;;;3.42;65.23
48095;BME280;33874;52.070;-0.516;2023-03-05T02:15:49;102114.77;;;3.43;65.39
48095;BME280;33874;52.070;-0.516;2023-03-05T02:18:21;102111.61;;;3.44;65.42
48095;BME280;33874;52.070;-0.516;2023-03-05T02:20:50;102109.50;;;3.44;65.47
48095;BME280;33874;52.070;-0.516;2023-03-05T02:23:21;102107.73;;;3.45;65.46
48095;BME280;33874;52.070;-0.516;2023-03-05T02:25:50;102104.27;;;3.45;65.50
48095;BME280;33874;52.070;-0.516;2023-03-05T02:28:22;102100.36;;;3.42;65.22
48095;BME280;33874;52.070;-0.516;2023-03-05T02:30:51;102095.45;;;3.39;65.28
48095;BME280;33874;52.070;-0.516;2023-03-05T02:33:19;102092.56;;;3.36;65.29
48095;BME280;33874;52.070;-0.516;2023-03-05T02:35:47;102089.14;;;3.34;65.29
48095;BME280;33874;52.070;-0.516;2023-03-05T02:38:16;102086.38;;;3.34;65.44
48095;BME280;33874;52.070;-0.516;2023-03-05T02:40:46;102081.18;;;3.33;65.47
48095;BME280;33874;52.070;-0.516;2023-03-05T02:43:14;102078.98;;;3.31;65.26
48095;BME280;33874;52.070;-0.516;2023-03-05T02:45:42;102073.89;;;3.28;65.32
48095;BME280;33874;52.070;-0.516;2023-03-05T02:48:11;102073.30;;;3.25;65.32
48095;BME280;33874;52.070;-0.516;2023-03-05T02:50:39;102070.02;;;3.24;65.34
48095;BME280;33874;52.070;-0.516;2023-03-05T02:53:07;102068.81;;;3.23;65.37
48095;BME280;33874;52.070;-0.516;2023-03-05T02:55:35;102065.84;;;3.25;65.41
48095;BME280;33874;52.070;-0.516;2023-03-05T02:58:03;102066.17;;;3.25;65.51
48095;BME280;33874;52.070;-0.516;2023-03-05T03:00:31;102062.99;;;3.27;65.43
48095;BME280;33874;52.070;-0.516;2023-03-05T03:02:59;102061.40;;;3.27;65.58
48095;BME280;33874;52.070;-0.516;2023-03-05T03:05:26;102058.91;;;3.29;65.63
48095;BME280;33874;52.070;-0.516;2023-03-05T03:07:54;102052.07;;;3.31;65.53
48095;BME280;33874;52.070;-0.516;2023-03-05T03:10:22;102042.74;;;3.29;65.58
48095;BME280;33874;52.070;-0.516;2023-03-05T03:12:51;102044.86;;;3.28;65.38
48095;BME280;33874;52.070;-0.516;2023-03-05T03:15:18;102038.91;;;3.25;65.32
48095;BME280;33874;52.070;-0.516;2023-03-05T03:17:46;102036.48;;;3.19;65.30
48095;BME280;33874;52.070;-0.516;2023-03-05T03:20:15;102031.70;;;3.17;65.22
48095;BME280;33874;52.070;-0.516;2023-03-05T03:22:44;102031.98;;;3.13;65.31
48095;BME280;33874;52.070;-0.516;2023-03-05T03:25:13;102028.08;;;3.11;65.35
48095;BME280;33874;52.070;-0.516;2023-03-05T03:27:41;102024.82;;;3.09;65.33
48095;BME280;33874;52.070;-0.516;2023-03-05T03:30:09;102024.30;;;3.09;65.49
48095;BME280;33874;52.070;-0.516;2023-03-05T03:32:38;102020.10;;;3.10;65.45
48095;BME280;33874;52.070;-0.516;2023-03-05T03:35:06;102020.35;;;3.13;65.45
48095;BME280;33874;52.070;-0.516;2023-03-05T03:37:34;102016.98;;;3.15;65.51
48095;BME280;33874;52.070;-0.516;2023-03-05T03:40:03;102009.48;;;3.16;65.46
48095;BME280;33874;52.070;-0.516;2023-03-05T03:42:32;102004.45;;;3.16;65.48
48095;BME280;33874;52.070;-0.516;2023-03-05T03:45:00;102007.05;;;3.16;65.45
48095;BME280;33874;52.070;-0.516;2023-03-05T03:47:29;102000.66;;;3.15;65.33
48095;BME280;33874;52.070;-0.516;2023-03-05T03:49:57;101999.14;;;3.14;65.21
48095;BME280;33874;52.070;-0.516;2023-03-05T03:52:25;101995.23;;;3.11;65.23
48095;BME280;33874;52.070;-0.516;2023-03-05T03:54:54;101992.14;;;3.10;65.20
48095;BME280;33874;52.070;-0.516;2023-03-05T03:57:28;101992.41;;;3.07;65.28
48095;BME280;33874;52.070;-0.516;2023-03-05T03:59:57;101986.11;;;3.04;65.17
48095;BME280;33874;52.070;-0.516;2023-03-05T04:02:25;101988.92;;;3.03;65.28
48095;BME280;33874;52.070;-0.516;2023-03-05T04:04:53;101985.02;;;3.00;65.15
48095;BME280;33874;52.070;-0.516;2023-03-05T04:07:21;101985.11;;;2.97;65.18
48095;BME280;33874;52.070;-0.516;2023-03-05T04:09:48;101983.08;;;2.95;65.27
48095;BME280;33874;52.070;-0.516;2023-03-05T04:12:16;101979.96;;;2.95;65.33
48095;BME280;33874;52.070;-0.516;2023-03-05T04:14:45;101974.73;;;2.96;65.41
48095;BME280;33874;52.070;-0.516;2023-03-05T04:17:13;101971.89;;;2.98;65.49
48095;BME280;33874;52.070;-0.516;2023-03-05T04:19:42;101966.81;;;2.99;65.47
48095;BME280;33874;52.070;-0.516;2023-03-05T04:22:11;101962.63;;;2.99;65.42
48095;BME280;33874;52.070;-0.516;2023-03-05T04:24:39;101967.14;;;3.00;65.47
48095;BME280;33874;52.070;-0.516;2023-03-05T04:27:07;101964.73;;;2.99;65.39
48095;BME280;33874;52.070;-0.516;2023-03-05T04:29:35;101959.43;;;2.97;65.25
48095;BME280;33874;52.070;-0.516;2023-03-05T04:32:04;101955.38;;;2.94;65.21
48095;BME280;33874;52.070;-0.516;2023-03-05T04:34:32;101950.14;;;2.89;65.15
48095;BME280;33874;52.070;-0.516;2023-03-05T04:37:00;101943.91;;;2.88;65.44
48095;BME280;33874;52.070;-0.516;2023-03-05T04:39:28;101942.35;;;2.88;65.32
48095;BME280;33874;52.070;-0.516;2023-03-05T04:41:56;101942.60;;;2.85;65.24
48095;BME280;33874;52.070;-0.516;2023-03-05T04:44:24;101937.39;;;2.86;65.48
48095;BME280;33874;52.070;-0.516;2023-03-05T04:46:54;101931.85;;;2.86;65.45
48095;BME280;33874;52.070;-0.516;2023-03-05T04:49:22;101928.22;;;2.85;65.41
48095;BME280;33874;52.070;-0.516;2023-03-05T04:51:50;101930.09;;;2.86;65.38
48095;BME280;33874;52.070;-0.516;2023-03-05T04:54:18;101925.40;;;2.86;65.38
48095;BME280;33874;52.070;-0.516;2023-03-05T04:56:46;101924.73;;;2.85;65.43
48095;BME280;33874;52.070;-0.516;2023-03-05T04:59:13;101921.98;;;2.84;65.18
48095;BME280;33874;52.070;-0.516;2023-03-05T05:01:41;101920.45;;;2.83;65.42
48095;BME280;33874;52.070;-0.516;2023-03-05T05:04:09;101920.50;;;2.82;65.45
48095;BME280;33874;52.070;-0.516;2023-03-05T05:06:37;101918.26;;;2.82;65.45
48095;BME280;33874;52.070;-0.516;2023-03-05T05:09:06;101913.01;;;2.83;65.50
48095;BME280;33874;52.070;-0.516;2023-03-05T05:11:33;101917.14;;;2.83;65.45
48095;BME280;33874;52.070;-0.516;2023-03-05T05:14:01;101910.00;;;2.84;65.55
48095;BME280;33874;52.070;-0.516;2023-03-05T05:16:31;101908.80;;;2.84;65.45
48095;BME280;33874;52.070;-0.516;2023-03-05T05:18:58;101909.06;;;2.81;65.34
48095;BME280;33874;52.070;-0.516;2023-03-05T05:21:26;101907.21;;;2.80;65.22
48095;BME280;33874;52.070;-0.516;2023-03-05T05:23:54;101902.10;;;2.77;65.32
48095;BME280;33874;52.070;-0.516;2023-03-05T05:26:22;101899.92;;;2.74;65.15
48095;BME280;33874;52.070;-0.516;2023-03-05T05:28:50;101900.13;;;2.74;65.38
48095;BME280;33874;52.070;-0.516;2023-03-05T05:31:18;101896.93;;;2.76;65.43
48095;BME280;33874;52.070;-0.516;2023-03-05T05:33:46;101887.33;;;2.77;65.44
48095;BME280;33874;52.070;-0.516;2023-03-05T05:36:16;101885.36;;;2.79;65.48
48095;BME280;33874;52.070;-0.516;2023-03-05T05:38:45;101880.65;;;2.79;65.40
48095;BME280;33874;52.070;-0.516;2023-03-05T05:41:14;101874.09;;;2.79;65.57
48095;BME280;33874;52.070;-0.516;2023-03-05T05:43:43;101873.35;;;2.80;65.48
48095;BME280;33874;52.070;-0.516;2023-03-05T05:46:13;101868.89;;;2.78;65.42
48095;BME280;33874;52.070;-0.516;2023-03-05T05:48:42;101868.27;;;2.76;65.33
48095;BME280;33874;52.070;-0.516;2023-03-05T05:51:14;101866.63;;;2.73;65.42
48095;BME280;33874;52.070;-0.516;2023-03-05T05:53:43;101866.71;;;2.71;65.46
48095;BME280;33874;52.070;-0.516;2023-03-05T05:56:11;101862.59;;;2.70;65.61
48095;BME280;33874;52.070;-0.516;2023-03-05T05:58:39;101856.04;;;2.69;65.56
48095;BME280;33874;52.070;-0.516;2023-03-05T06:01:11;101851.08;;;2.66;65.55
48095;BME280;33874;52.070;-0.516;2023-03-05T06:03:39;101849.02;;;2.65;65.53
48095;BME280;33874;52.070;-0.516;2023-03-05T06:06:10;101849.95;;;2.64;65.73
48095;BME280;33874;52.070;-0.516;2023-03-05T06:08:39;101850.27;;;2.64;65.56
48095;BME280;33874;52.070;-0.516;2023-03-05T06:11:07;101846.91;;;2.66;65.58
48095;BME280;33874;52.070;-0.516;2023-03-05T06:13:35;101842.58;;;2.66;65.81
48095;BME280;33874;52.070;-0.516;2023-03-05T06:16:04;101835.92;;;2.68;65.68
48095;BME280;33874;52.070;-0.516;2023-03-05T06:18:33;101834.82;;;2.70;65.75
48095;BME280;33874;52.070;-0.516;2023-03-05T06:21:03;101833.80;;;2.69;65.81
48095;BME280;33874;52.070;-0.516;2023-03-05T06:23:33;101836.02;;;2.70;65.81
48095;BME280;33874;52.070;-0.516;2023-03-05T06:26:01;101836.77;;;2.69;65.83
48095;BME280;33874;52.070;-0.516;2023-03-05T06:28:30;101836.70;;;2.65;65.78
48095;BME280;33874;52.070;-0.516;2023-03-05T06:31:05;101835.44;;;2.61;65.71
48095;BME280;33874;52.070;-0.516;2023-03-05T06:33:34;101838.85;;;2.59;65.85
48095;BME280;33874;52.070;-0.516;2023-03-05T06:36:05;101844.33;;;2.56;66.04
48095;BME280;33874;52.070;-0.516;2023-03-05T06:38:35;101844.38;;;2.54;65.90
48095;BME280;33874;52.070;-0.516;2023-03-05T06:41:05;101847.48;;;2.55;66.13
48095;BME280;33874;52.070;-0.516;2023-03-05T06:43:34;101851.44;;;2.56;66.00
48095;BME280;33874;52.070;-0.516;2023-03-05T06:46:14;101854.36;;;2.57;66.08
48095;BME280;33874;52.070;-0.516;2023-03-05T06:48:43;101853.30;;;2.57;66.05
48095;BME280;33874;52.070;-0.516;2023-03-05T06:51:12;101856.88;;;2.59;66.17
48095;BME280;33874;52.070;-0.516;2023-03-05T06:53:41;101852.48;;;2.61;66.21
48095;BME280;33874;52.070;-0.516;2023-03-05T06:56:09;101844.77;;;2.63;66.22
48095;BME280;33874;52.070;-0.516;2023-03-05T06:58:37;101842.09;;;2.65;66.25
48095;BME280;33874;52.070;-0.516;2023-03-05T07:01:05;101843.09;;;2.66;66.18
48095;BME280;33874;52.070;-0.516;2023-03-05T07:03:34;101838.42;;;2.66;66.02
48095;BME280;33874;52.070;-0.516;2023-03-05T07:06:06;101837.56;;;2.65;66.09
48095;BME280;33874;52.070;-0.516;2023-03-05T07:08:34;101841.40;;;2.65;66.16
48095;BME280;33874;52.070;-0.516;2023-03-05T07:11:02;101843.80;;;2.66;66.21
48095;BME280;33874;52.070;-0.516;2023-03-05T07:13:30;101839.85;;;2.65;66.08
48095;BME280;33874;52.070;-0.516;2023-03-05T07:15:58;101835.67;;;2.65;66.04
48095;BME280;33874;52.070;-0.516;2023-03-05T07:18:26;101836.48;;;2.67;65.98
48095;BME280;33874;52.070;-0.516;2023-03-05T07:20:55;101831.88;;;2.69;66.14
48095;BME280;33874;52.070;-0.516;2023-03-05T07:23:22;101828.88;;;2.71;66.00
48095;BME280;33874;52.070;-0.516;2023-03-05T07:25:50;101827.64;;;2.72;65.89
48095;BME280;33874;52.070;-0.516;2023-03-05T07:28:18;101828.47;;;2.72;65.79
48095;BME280;33874;52.070;-0.516;2023-03-05T07:30:53;101828.95;;;2.74;65.80
48095;BME280;33874;52.070;-0.516;2023-03-05T07:33:21;101830.93;;;2.77;65.97
48095;BME280;33874;52.070;-0.516;2023-03-05T07:35:49;101829.23;;;2.80;66.02
48095;BME280;33874;52.070;-0.516;2023-03-05T07:38:16;101828.11;;;2.83;65.95
48095;BME280;33874;52.070;-0.516;2023-03-05T07:40:44;101823.34;;;2.85;66.09
48095;BME280;33874;52.070;-0.516;2023-03-05T07:43:12;101826.91;;;2.87;66.00
48095;BME280;33874;52.070;-0.516;2023-03-05T07:45:43;101827.54;;;2.89;66.12
48095;BME280;33874;52.070;-0.516;2023-03-05T07:48:12;101822.95;;;2.91;66.07
48095;BME280;33874;52.070;-0.516;2023-03-05T07:50:41;101821.83;;;2.94;66.06
48095;BME280;33874;52.070;-0.516;2023-03-05T07:53:10;101825.60;;;2.95;65.86
48095;BME280;33874;52.070;-0.516;2023-03-05T07:55:44;101820.56;;;2.95;65.98
48095;BME280;33874;52.070;-0.516;2023-03-05T07:58:12;101823.67;;;3.00;65.97
48095;BME280;33874;52.070;-0.516;2023-03-05T08:00:40;101815.29;;;3.06;66.15
48095;BME280;33874;52.070;-0.516;2023-03-05T08:03:08;101815.02;;;3.13;66.17
48095;BME280;33874;52.070;-0.516;2023-03-05T08:05:40;101819.30;;;3.20;66.00
48095;BME280;33874;52.070;-0.516;2023-03-05T08:08:08;101818.83;;;3.23;65.93
48095;BME280;33874;52.070;-0.516;2023-03-05T08:10:37;101819.83;;;3.24;65.76
48095;BME280;33874;52.070;-0.516;2023-03-05T08:13:04;101817.17;;;3.26;65.68
48095;BME280;33874;52.070;-0.516;2023-03-05T08:15:32;101810.22;;;3.26;65.64
48095;BME280;33874;52.070;-0.516;2023-03-05T08:18:00;101804.72;;;3.29;65.75
48095;BME280;33874;52.070;-0.516;2023-03-05T08:20:28;101798.85;;;3.32;65.58
48095;BME280;33874;52.070;-0.516;2023-03-05T08:22:56;101802.16;;;3.37;65.65
48095;BME280;33874;52.070;-0.516;2023-03-05T08:25:24;101799.02;;;3.42;65.47
48095;BME280;33874;52.070;-0.516;2023-03-05T08:27:52;101791.20;;;3.42;65.27
48095;BME280;33874;52.070;-0.516;2023-03-05T08:30:19;101787.36;;;3.47;65.32
48095;BME280;33874;52.070;-0.516;2023-03-05T08:32:49;101785.09;;;3.51;65.31
48095;BME280;33874;52.070;-0.516;2023-03-05T08:35:16;101781.44;;;3.61;65.25
48095;BME280;33874;52.070;-0.516;2023-03-05T08:37:44;101781.45;;;3.69;65.13
48095;BME280;33874;52.070;-0.516;2023-03-05T08:40:12;101781.71;;;3.75;64.85
48095;BME280;33874;52.070;-0.516;2023-03-05T08:42:40;101780.58;;;3.77;64.45
48095;BME280;33874;52.070;-0.516;2023-03-05T08:45:08;101775.19;;;3.78;64.32
48095;BME280;33874;52.070;-0.516;2023-03-05T08:47:39;101771.38;;;3.77;64.30
48095;BME280;33874;52.070;-0.516;2023-03-05T08:50:07;101774.30;;;3.74;64.01
48095;BME280;33874;52.070;-0.516;2023-03-05T08:52:36;101774.19;;;3.72;64.17
48095;BME280;33874;52.070;-0.516;2023-03-05T08:55:04;101772.75;;;3.69;63.76
48095;BME280;33874;52.070;-0.516;2023-03-05T08:57:32;101767.13;;;3.66;63.92
48095;BME280;33874;52.070;-0.516;2023-03-05T09:00:00;101763.84;;;3.70;63.84
48095;BME280;33874;52.070;-0.516;2023-03-05T09:02:28;101757.83;;;3.73;63.74
48095;BME280;33874;52.070;-0.516;2023-03-05T09:04:56;101756.30;;;3.76;63.69
48095;BME280;33874;52.070;-0.516;2023-03-05T09:07:24;101755.48;;;3.79;63.66
48095;BME280;33874;52.070;-0.516;2023-03-05T09:09:52;101754.97;;;3.83;63.71
48095;BME280;33874;52.070;-0.516;2023-03-05T09:12:20;101752.20;;;3.88;63.54
48095;BME280;33874;52.070;-0.516;2023-03-05T09:14:49;101747.54;;;3.91;63.35
48095;BME280;33874;52.070;-0.516;2023-03-05T09:17:17;101737.98;;;3.95;63.11
48095;BME280;33874;52.070;-0.516;2023-03-05T09:19:44;101726.39;;;4.01;63.26
48095;BME280;33874;52.070;-0.516;2023-03-05T09:22:12;101719.94;;;4.10;63.40
48095;BME280;33874;52.070;-0.516;2023-03-05T09:24:40;101726.14;;;4.20;63.14
48095;BME280;33874;52.070;-0.516;2023-03-05T09:27:09;101729.98;;;4.27;63.00
48095;BME280;33874;52.070;-0.516;2023-03-05T09:29:38;101728.41;;;4.31;62.65
48095;BME280;33874;52.070;-0.516;2023-03-05T09:32:09;101724.40;;;4.31;62.37
48095;BME280;33874;52.070;-0.516;2023-03-05T09:34:37;101724.11;;;4.34;62.62
48095;BME280;33874;52.070;-0.516;2023-03-05T09:37:05;101726.50;;;4.40;62.44
48095;BME280;33874;52.070;-0.516;2023-03-05T09:39:32;101725.45;;;4.40;62.11
48095;BME280;33874;52.070;-0.516;2023-03-05T09:52:02;101699.62;;;4.72;62.08
48095;BME280;33874;52.070;-0.516;2023-03-05T09:54:36;101696.11;;;4.81;61.51
48095;BME280;33874;52.070;-0.516;2023-03-05T09:57:05;101696.35;;;4.83;61.28
48095;BME280;33874;52.070;-0.516;2023-03-05T10:02:13;101683.87;;;4.93;60.90
48095;BME280;33874;52.070;-0.516;2023-03-05T10:04:44;101678.50;;;5.04;60.77
48095;BME280;33874;52.070;-0.516;2023-03-05T10:07:19;101673.02;;;5.09;60.47
48095;BME280;33874;52.070;-0.516;2023-03-05T10:09:53;101669.08;;;5.11;59.97
48095;BME280;33874;52.070;-0.516;2023-03-05T10:12:29;101668.27;;;5.10;60.03
48095;BME280;33874;52.070;-0.516;2023-03-05T10:15:16;101669.08;;;5.15;59.82
48095;BME280;33874;52.070;-0.516;2023-03-05T10:18:36;101666.70;;;5.17;59.49
48095;BME280;33874;52.070;-0.516;2023-03-05T10:26:01;101642.72;;;5.59;59.37
48095;BME280;33874;52.070;-0.516;2023-03-05T10:33:44;101631.90;;;5.97;59.35
48095;BME280;33874;52.070;-0.516;2023-03-05T10:41:37;101615.48;;;6.57;58.36
48095;BME280;33874;52.070;-0.516;2023-03-05T10:44:28;101613.63;;;6.72;58.38
48095;BME280;33874;52.070;-0.516;2023-03-05T10:46:59;101610.09;;;6.88;58.52
48095;BME280;33874;52.070;-0.516;2023-03-05T10:49:34;101606.73;;;7.05;58.45
48095;BME280;33874;52.070;-0.516;2023-03-05T10:52:13;101607.84;;;7.16;57.61
48095;BME280;33874;52.070;-0.516;2023-03-05T10:54:45;101606.76;;;7.19;57.29
48095;BME280;33874;52.070;-0.516;2023-03-05T10:59:46;101603.70;;;7.15;56.35
48095;BME280;33874;52.070;-0.516;2023-03-05T11:02:14;101600.94;;;7.17;56.81
48095;BME280;33874;52.070;-0.516;2023-03-05T11:04:42;101600.21;;;7.24;56.09
48095;BME280;33874;52.070;-0.516;2023-03-05T11:10:06;101586.35;;;7.40;56.58
48095;BME280;33874;52.070;-0.516;2023-03-05T11:12:34;101582.59;;;7.56;56.51
48095;BME280;33874;52.070;-0.516;2023-03-05T11:25:59;101566.96;;;7.86;54.93
48095;BME280;33874;52.070;-0.516;2023-03-05T11:33:29;101553.45;;;7.96;54.86
48095;BME280;33874;52.070;-0.516;2023-03-05T11:36:19;101548.71;;;8.05;54.58
48095;BME280;33874;52.070;-0.516;2023-03-05T11:40:03;101539.58;;;8.05;54.03
48095;BME280;33874;52.070;-0.516;2023-03-05T11:46:56;101519.62;;;7.97;53.15
48095;BME280;33874;52.070;-0.516;2023-03-05T11:49:27;101513.61;;;7.97;53.49
48095;BME280;33874;52.070;-0.516;2023-03-05T11:57:11;101499.91;;;8.26;53.56
48095;BME280;33874;52.070;-0.516;2023-03-05T11:59:41;101499.58;;;8.29;53.27
48095;BME280;33874;52.070;-0.516;2023-03-05T12:02:22;101497.09;;;8.27;52.90
48095;BME280;33874;52.070;-0.516;2023-03-05T12:04:51;101498.20;;;8.20;53.12
48095;BME280;33874;52.070;-0.516;2023-03-05T12:07:21;101495.63;;;8.28;53.30
48095;BME280;33874;52.070;-0.516;2023-03-05T12:09:54;101490.50;;;8.26;53.22
48095;BME280;33874;52.070;-0.516;2023-03-05T12:12:33;101490.07;;;8.27;53.09
48095;BME280;33874;52.070;-0.516;2023-03-05T12:20:13;101479.26;;;7.95;51.69
48095;BME280;33874;52.070;-0.516;2023-03-05T12:22:44;101472.83;;;7.81;51.38
48095;BME280;33874;52.070;-0.516;2023-03-05T12:25:26;101461.56;;;7.76;51.53
48095;BME280;33874;52.070;-0.516;2023-03-05T12:27:54;101449.23;;;7.83;51.58
48095;BME280;33874;52.070;-0.516;2023-03-05T12:30:52;101440.60;;;7.87;51.45
48095;BME280;33874;52.070;-0.516;2023-03-05T12:38:43;101429.51;;;7.96;51.27
48095;BME280;33874;52.070;-0.516;2023-03-05T12:41:34;101422.35;;;7.98;51.97
48095;BME280;33874;52.070;-0.516;2023-03-05T12:46:38;101411.54;;;8.20;51.70
48095;BME280;33874;52.070;-0.516;2023-03-05T12:51:47;101404.49;;;8.28;51.70
48095;BME280;33874;52.070;-0.516;2023-03-05T12:56:50;101388.66;;;8.13;51.32
48095;BME280;33874;52.070;-0.516;2023-03-05T12:59:19;101382.08;;;8.15;51.41
48095;BME280;33874;52.070;-0.516;2023-03-05T13:01:55;101377.19;;;8.17;51.72
48095;BME280;33874;52.070;-0.516;2023-03-05T13:04:27;101372.19;;;8.19;51.59
48095;BME280;33874;52.070;-0.516;2023-03-05T13:07:00;101365.72;;;8.03;50.82
48095;BME280;33874;52.070;-0.516;2023-03-05T13:09:29;101363.06;;;7.78;50.15
48095;BME280;33874;52.070;-0.516;2023-03-05T13:11:59;101356.46;;;7.53;49.99
48095;BME280;33874;52.070;-0.516;2023-03-05T13:17:22;101352.67;;;7.41;51.12
48095;BME280;33874;52.070;-0.516;2023-03-05T13:19:50;101344.10;;;7.43;51.22
48095;BME280;33874;52.070;-0.516;2023-03-05T13:22:18;101341.98;;;7.43;50.72
48095;BME280;33874;52.070;-0.516;2023-03-05T13:24:47;101339.05;;;7.43;50.81
48095;BME280;33874;52.070;-0.516;2023-03-05T13:27:27;101330.36;;;7.45;50.85
48095;BME280;33874;52.070;-0.516;2023-03-05T13:29:56;101324.83;;;7.55;51.34
48095;BME280;33874;52.070;-0.516;2023-03-05T13:32:28;101321.20;;;7.68;51.33
48095;BME280;33874;52.070;-0.516;2023-03-05T13:34:57;101314.42;;;7.73;51.15
48095;BME280;33874;52.070;-0.516;2023-03-05T13:37:26;101310.08;;;7.78;50.93
48095;BME280;33874;52.070;-0.516;2023-03-05T13:39:58;101308.83;;;7.76;50.82
48095;BME280;33874;52.070;-0.516;2023-03-05T13:42:28;101301.84;;;7.76;50.93
48095;BME280;33874;52.070;-0.516;2023-03-05T13:44:59;101302.38;;;7.75;50.88
48095;BME280;33874;52.070;-0.516;2023-03-05T13:47:32;101303.69;;;7.71;50.71
48095;BME280;33874;52.070;-0.516;2023-03-05T13:50:04;101298.73;;;7.66;50.91
48095;BME280;33874;52.070;-0.516;2023-03-05T13:52:34;101295.88;;;7.62;50.57
48095;BME280;33874;52.070;-0.516;2023-03-05T13:55:13;101289.86;;;7.58;51.13
48095;BME280;33874;52.070;-0.516;2023-03-05T13:57:44;101285.06;;;7.59;51.44
48095;BME280;33874;52.070;-0.516;2023-03-05T14:02:54;101283.80;;;7.48;51.47
48095;BME280;33874;52.070;-0.516;2023-03-05T14:05:26;101278.17;;;7.38;51.45
48095;BME280;33874;52.070;-0.516;2023-03-05T14:07:54;101278.58;;;7.29;51.83
48095;BME280;33874;52.070;-0.516;2023-03-05T14:12:57;101277.32;;;7.01;52.04
48095;BME280;33874;52.070;-0.516;2023-03-05T14:18:15;101270.68;;;6.90;52.79
48095;BME280;33874;52.070;-0.516;2023-03-05T14:26:10;101261.90;;;6.61;52.96
48095;BME280;33874;52.070;-0.516;2023-03-05T14:28:38;101257.17;;;6.50;53.29
48095;BME280;33874;52.070;-0.516;2023-03-05T14:31:12;101253.04;;;6.46;53.36
48095;BME280;33874;52.070;-0.516;2023-03-05T14:33:42;101255.30;;;6.41;53.49
48095;BME280;33874;52.070;-0.516;2023-03-05T14:36:10;101253.94;;;6.31;53.74
48095;BME280;33874;52.070;-0.516;2023-03-05T14:38:39;101253.02;;;6.29;54.30
48095;BME280;33874;52.070;-0.516;2023-03-05T14:44:13;101253.48;;;6.03;54.34